Terminal Aerodrome Forecast
Issued by NWS

Home | Current Version | Previous Version | Text Only | Print | Product List | Glossary On
Versions: 1 2 3 4 5 6 7 8 9 10 11 12
537
FTUS45 KTFX 211720
TAFBZN
TAF
KBZN 211720Z 2118/2224 26011KT P6SM FEW050 FEW150
     FM220200 22009KT P6SM BKN070 BKN080
     FM220400 20009KT P6SM SCT070 OVC080 WS020/23035KT PROB30
      2218/2219 4SM -SHRA OVC025=

USA.gov is the U.S. government's official web portal to all federal, state and local government web resources and services.